Denver, Colorado
Traffic Map
Current Weather Conditions
Denver, Colorado
Overcast Light Rain
Overcast
43°
Feels Like: 36°
Wind Chill: 36° Ceiling: 900
Heat Index: 43° Visibility: 5mi
Dew Point: 41° Wind: 14mph
Humidity: 93% Direction: 10° (N)
Pressure: 30.24in Gusts: 23mph
Raw Report DataKBJC 230055Z 01012G20KT 5SM -RA BKN009 OVC020 06/05 A3024
Traffic Incident Summary
Active as of:
Severity:
Category:
InformationThere was an issue retrieving the traffic information for this location. Please try a different location or try again shortly.
Advertisements
Track Severe Weather on mobile